createdAt,value
2023-11-01T00:01:20.834Z,-14.51
2023-11-01T00:03:49.649Z,-14.53
2023-11-01T00:06:18.993Z,-14.51
2023-11-01T00:08:47.501Z,-14.52
2023-11-01T00:11:16.557Z,-14.48
2023-11-01T00:13:45.504Z,-14.49
2023-11-01T00:16:13.911Z,-14.49
2023-11-01T00:18:42.404Z,-14.47
2023-11-01T00:21:11.132Z,-14.44
2023-11-01T00:23:39.680Z,-14.42
2023-11-01T00:26:08.871Z,-14.41
2023-11-01T00:28:38.321Z,-14.41
2023-11-01T00:31:07.452Z,-14.39
2023-11-01T00:33:36.722Z,-14.37
2023-11-01T00:36:05.787Z,-14.33
2023-11-01T00:38:37.341Z,-14.28
2023-11-01T00:41:06.124Z,-14.22
2023-11-01T00:43:34.698Z,-14.17
2023-11-01T00:46:03.383Z,-14.09
2023-11-01T00:48:32.003Z,-14.09
2023-11-01T00:51:01.103Z,-14.04
2023-11-01T00:53:29.445Z,-13.99
2023-11-01T00:55:58.369Z,-13.92
2023-11-01T00:58:26.747Z,-13.86
2023-11-01T01:00:56.418Z,-13.78
2023-11-01T01:03:25.194Z,-13.65
2023-11-01T01:05:53.683Z,-13.48
2023-11-01T01:08:22.221Z,-12.87
2023-11-01T01:10:50.653Z,-11.37
2023-11-01T01:13:18.996Z,-9.91
2023-11-01T01:15:47.480Z,-9.35
2023-11-01T01:18:16.563Z,-9.71
2023-11-01T01:20:45.446Z,-9.77
2023-11-01T01:23:14.997Z,-8.89
2023-11-01T01:25:44.090Z,-7.86
2023-11-01T01:28:12.597Z,-7.69
2023-11-01T01:30:41.374Z,-7.38
2023-11-01T01:33:09.742Z,-5.83
2023-11-01T01:35:38.134Z,-4.84
2023-11-01T01:38:06.986Z,-5.80
2023-11-01T01:40:35.982Z,-6.78
2023-11-01T01:43:31.616Z,-7.06
2023-11-01T01:46:00.048Z,-7.47
2023-11-01T01:48:28.551Z,-7.70
2023-11-01T01:50:57.487Z,-7.11
2023-11-01T01:53:26.019Z,-6.64
2023-11-01T01:55:55.927Z,-6.21
2023-11-01T01:58:26.667Z,-6.03
2023-11-01T02:00:56.898Z,-6.25
2023-11-01T02:03:26.057Z,-6.26
2023-11-01T02:05:54.852Z,-6.13
2023-11-01T02:08:23.668Z,-6.25
2023-11-01T02:10:52.036Z,-6.44
2023-11-01T02:13:21.458Z,-6.14
2023-11-01T02:15:50.667Z,-6.04
2023-11-01T02:18:19.785Z,-6.24
2023-11-01T02:20:49.131Z,-6.30
2023-11-01T02:23:17.742Z,-6.33
2023-11-01T02:25:46.422Z,-5.98
2023-11-01T02:28:14.800Z,-5.57
2023-11-01T02:30:44.148Z,-5.03
2023-11-01T02:33:12.508Z,-5.21
2023-11-01T02:35:41.376Z,-5.61
2023-11-01T02:38:11.076Z,-5.89
2023-11-01T02:40:39.637Z,-6.29
2023-11-01T02:43:08.157Z,-6.41
2023-11-01T02:45:37.129Z,-6.19
2023-11-01T02:48:05.622Z,-6.22
2023-11-01T02:50:34.046Z,-6.10
2023-11-01T02:53:02.510Z,-5.81
2023-11-01T02:55:31.195Z,-5.07
2023-11-01T02:57:59.787Z,-4.38
2023-11-01T03:00:29.378Z,-4.09
2023-11-01T03:02:59.218Z,-4.07
2023-11-01T03:05:29.852Z,-3.89
2023-11-01T03:07:58.853Z,-3.66
2023-11-01T03:10:27.938Z,-4.26
2023-11-01T03:12:57.525Z,-4.39
2023-11-01T03:15:25.904Z,-3.98
2023-11-01T03:17:54.392Z,-3.37
2023-11-01T03:20:22.950Z,-2.26
2023-11-01T03:22:51.450Z,-1.33
2023-11-01T03:25:20.180Z,-0.43
2023-11-01T03:27:49.122Z,0.16
2023-11-01T03:30:17.818Z,0.47
2023-11-01T03:32:47.211Z,1.14
2023-11-01T03:35:16.938Z,1.50
2023-11-01T03:37:45.427Z,1.47
2023-11-01T03:40:13.863Z,1.69
2023-11-01T03:42:43.383Z,1.82
2023-11-01T03:45:12.896Z,1.75
2023-11-01T03:47:41.816Z,1.39
2023-11-01T03:50:10.638Z,1.16
2023-11-01T03:52:39.115Z,1.16
2023-11-01T03:55:13.301Z,1.75
2023-11-01T03:57:42.503Z,2.57
2023-11-01T04:00:12.920Z,3.87
2023-11-01T04:02:41.684Z,4.77
2023-11-01T04:05:10.158Z,5.32
2023-11-01T04:07:38.568Z,5.47
2023-11-01T04:10:07.205Z,5.33
2023-11-01T04:12:36.166Z,5.32
2023-11-01T04:15:07.110Z,4.51
2023-11-01T04:17:35.669Z,2.77
2023-11-01T04:20:05.031Z,1.73
2023-11-01T04:22:33.401Z,1.80
2023-11-01T04:25:01.755Z,2.57
2023-11-01T04:27:30.207Z,2.95
2023-11-01T04:29:58.778Z,2.98
2023-11-01T04:32:31.636Z,2.78
2023-11-01T04:35:00.561Z,2.96
2023-11-01T04:37:29.110Z,3.49
2023-11-01T04:39:58.309Z,4.18
2023-11-01T04:42:26.751Z,4.23
2023-11-01T04:44:58.397Z,5.16
2023-11-01T04:47:27.714Z,6.98
2023-11-01T04:49:57.372Z,8.20
2023-11-01T04:52:25.799Z,8.71
2023-11-01T04:54:54.486Z,8.85
2023-11-01T04:57:22.891Z,9.14
2023-11-01T04:59:51.423Z,8.90
2023-11-01T05:02:21.385Z,8.71
2023-11-01T05:04:50.118Z,8.67
2023-11-01T05:07:18.442Z,8.80
2023-11-01T05:09:47.861Z,8.82
2023-11-01T05:12:16.582Z,8.76
2023-11-01T05:14:44.998Z,9.26
2023-11-01T05:17:13.448Z,9.27
2023-11-01T05:19:43.181Z,8.80
2023-11-01T05:22:11.801Z,8.07
2023-11-01T05:24:41.179Z,8.02
2023-11-01T05:27:10.190Z,8.94
2023-11-01T05:29:39.011Z,8.67
2023-11-01T05:32:07.851Z,7.89
2023-11-01T05:34:36.389Z,6.97
2023-11-01T05:37:05.149Z,6.37
2023-11-01T05:39:33.676Z,5.96
2023-11-01T05:42:02.192Z,5.99
2023-11-01T05:44:32.227Z,6.19
2023-11-01T05:47:01.868Z,6.84
2023-11-01T05:49:30.229Z,8.23
2023-11-01T05:51:58.749Z,9.00
2023-11-01T05:54:27.401Z,9.23
2023-11-01T05:56:56.224Z,8.88
2023-11-01T05:59:24.617Z,8.41
2023-11-01T06:01:55.133Z,7.75
2023-11-01T06:04:23.829Z,7.49
2023-11-01T06:06:52.231Z,8.00
2023-11-01T06:09:21.350Z,8.93
2023-11-01T06:11:50.476Z,9.19
2023-11-01T06:14:19.000Z,8.98
2023-11-01T06:16:47.585Z,8.71
2023-11-01T06:19:16.136Z,8.77
2023-11-01T06:21:44.572Z,8.52
2023-11-01T06:24:15.589Z,8.05
2023-11-01T06:26:44.054Z,7.42
2023-11-01T06:29:12.441Z,7.06
2023-11-01T06:31:40.851Z,6.21
2023-11-01T06:34:09.467Z,5.11
2023-11-01T06:36:37.974Z,4.61
2023-11-01T06:39:06.390Z,4.61
2023-11-01T06:41:34.779Z,3.56
2023-11-01T06:44:03.927Z,1.80
2023-11-01T06:46:32.665Z,0.42
2023-11-01T06:49:01.156Z,-0.72
2023-11-01T06:51:29.809Z,-1.72
2023-11-01T06:53:58.175Z,-2.37
2023-11-01T06:56:26.585Z,-2.98
2023-11-01T06:58:55.140Z,-3.49
2023-11-01T07:01:24.650Z,-3.68
2023-11-01T07:03:53.387Z,-3.91
2023-11-01T07:06:21.750Z,-4.30
2023-11-01T07:08:50.444Z,-4.77
2023-11-01T07:11:20.860Z,-5.01
2023-11-01T07:13:49.892Z,-5.07
2023-11-01T07:16:19.477Z,-5.19
2023-11-01T07:18:48.862Z,-5.44
2023-11-01T07:21:18.615Z,-5.66
2023-11-01T07:23:47.505Z,-5.87
2023-11-01T07:26:16.477Z,-6.05
2023-11-01T07:28:47.966Z,-6.25
2023-11-01T07:31:17.021Z,-6.31
2023-11-01T07:33:45.594Z,-6.31
2023-11-01T07:36:16.818Z,-6.39
2023-11-01T07:38:45.241Z,-5.80
2023-11-01T07:41:13.756Z,-3.73
2023-11-01T07:43:42.598Z,-1.51
2023-11-01T07:46:13.510Z,-0.08
2023-11-01T07:48:41.962Z,0.75
2023-11-01T07:51:10.788Z,0.40
2023-11-01T07:53:39.325Z,-0.58
2023-11-01T07:56:07.957Z,-1.44
2023-11-01T07:58:36.926Z,-1.76
2023-11-01T08:01:06.420Z,-2.23
2023-11-01T08:03:37.527Z,-2.96
2023-11-01T08:06:06.113Z,-3.86
2023-11-01T08:08:34.556Z,-4.63
2023-11-01T08:11:03.438Z,-5.06
2023-11-01T08:13:32.019Z,-5.31
2023-11-01T08:16:00.433Z,-5.46
2023-11-01T08:18:32.193Z,-5.55
2023-11-01T08:21:01.495Z,-5.84
2023-11-01T08:23:29.929Z,-6.09
2023-11-01T08:25:59.131Z,-6.48
2023-11-01T08:28:27.653Z,-6.88
2023-11-01T08:30:57.490Z,-7.22
2023-11-01T08:33:25.929Z,-7.47
2023-11-01T08:35:54.483Z,-7.70
2023-11-01T08:38:23.867Z,-7.93
2023-11-01T08:40:52.861Z,-8.04
2023-11-01T08:43:21.894Z,-8.06
2023-11-01T08:45:50.379Z,-7.92
2023-11-01T08:48:19.203Z,-7.97
2023-11-01T08:50:47.860Z,-8.16
2023-11-01T08:53:16.989Z,-8.35
2023-11-01T08:55:45.599Z,-8.52
2023-11-01T08:58:14.491Z,-8.67
2023-11-01T09:00:48.114Z,-8.81
2023-11-01T09:03:19.064Z,-8.94
2023-11-01T09:05:47.623Z,-9.07
2023-11-01T09:08:15.984Z,-9.15
2023-11-01T09:10:44.671Z,-9.28
2023-11-01T09:13:14.901Z,-9.38
2023-11-01T09:15:44.600Z,-9.46
2023-11-01T09:18:13.602Z,-9.59
2023-11-01T09:20:42.104Z,-9.66
2023-11-01T09:23:10.462Z,-9.78
2023-11-01T09:25:39.910Z,-9.84
2023-11-01T09:28:09.312Z,-9.94
2023-11-01T09:30:38.502Z,-10.05
2023-11-01T09:33:06.998Z,-10.11
2023-11-01T09:35:35.640Z,-10.18
2023-11-01T09:38:04.436Z,-10.26
2023-11-01T09:40:32.905Z,-10.34
2023-11-01T09:43:01.526Z,-10.37
2023-11-01T09:45:30.476Z,-10.40
2023-11-01T09:47:58.889Z,-10.44
2023-11-01T09:50:27.413Z,-10.43
2023-11-01T09:52:55.849Z,-10.45
2023-11-01T09:55:24.545Z,-10.50
2023-11-01T09:57:53.230Z,-10.55
2023-11-01T10:00:23.532Z,-10.57
2023-11-01T10:02:52.325Z,-10.62
2023-11-01T10:05:20.677Z,-10.63
2023-11-01T10:07:49.369Z,-10.67
2023-11-01T10:10:20.627Z,-10.72
2023-11-01T10:12:49.129Z,-10.75
2023-11-01T10:15:21.522Z,-10.80
2023-11-01T10:17:53.411Z,-10.91
2023-11-01T10:20:31.778Z,-11.03
2023-11-01T10:23:00.532Z,-11.14
2023-11-01T10:25:29.007Z,-11.23
2023-11-01T10:27:57.503Z,-11.33
2023-11-01T10:30:26.083Z,-11.38
2023-11-01T10:32:59.038Z,-11.41
2023-11-01T10:35:30.710Z,-11.46
2023-11-01T10:38:01.088Z,-11.47
2023-11-01T10:40:31.374Z,-11.47
2023-11-01T10:43:00.836Z,-11.54
2023-11-01T10:45:29.411Z,-11.59
2023-11-01T10:47:58.116Z,-11.56
2023-11-01T10:50:26.818Z,-11.53
2023-11-01T10:52:55.376Z,-11.56
2023-11-01T10:55:25.830Z,-11.64
2023-11-01T10:57:54.379Z,-11.69
2023-11-01T11:00:32.948Z,-11.62
2023-11-01T11:03:13.396Z,-11.62
2023-11-01T11:05:42.721Z,-11.72
2023-11-01T11:08:12.054Z,-11.74
2023-11-01T11:10:41.212Z,-11.70
2023-11-01T11:13:30.387Z,-11.67
2023-11-01T11:16:01.585Z,-11.62
2023-11-01T11:18:50.450Z,-11.61
2023-11-01T11:21:37.442Z,-11.59
2023-11-01T11:24:26.246Z,-11.65
2023-11-01T11:26:54.731Z,-11.66
2023-11-01T11:29:41.752Z,-11.67
2023-11-01T11:32:17.210Z,-11.68
2023-11-01T11:34:47.583Z,-11.72
2023-11-01T11:37:18.896Z,-11.75
2023-11-01T11:40:02.342Z,-11.79
2023-11-01T11:42:43.765Z,-11.84
2023-11-01T11:45:14.109Z,-11.86
2023-11-01T11:47:43.160Z,-11.91
2023-11-01T11:50:12.125Z,-11.94
2023-11-01T11:52:45.719Z,-11.95
2023-11-01T11:55:14.247Z,-11.96
2023-11-01T11:57:43.192Z,-11.98
2023-11-01T12:00:14.969Z,-11.96
2023-11-01T12:02:48.636Z,-12.02
2023-11-01T12:05:18.073Z,-12.13
2023-11-01T12:07:49.009Z,-12.19
2023-11-01T12:10:17.350Z,-12.30
2023-11-01T12:12:56.111Z,-12.38
2023-11-01T12:15:25.013Z,-12.51
2023-11-01T12:17:54.454Z,-12.59
2023-11-01T12:20:32.884Z,-12.68
2023-11-01T12:23:07.074Z,-12.75
2023-11-01T12:25:35.550Z,-12.78
2023-11-01T12:28:04.061Z,-12.79
2023-11-01T12:30:38.767Z,-12.79
2023-11-01T12:33:19.997Z,-12.79
2023-11-01T12:35:48.606Z,-12.82
2023-11-01T12:38:17.338Z,-12.85
2023-11-01T12:40:51.173Z,-12.87
2023-11-01T12:43:19.993Z,-12.86
2023-11-01T12:45:48.487Z,-12.87
2023-11-01T12:48:17.130Z,-12.85
2023-11-01T12:50:45.864Z,-12.84
2023-11-01T12:53:14.373Z,-12.78
2023-11-01T12:55:42.818Z,-12.73
2023-11-01T12:58:12.712Z,-12.73
2023-11-01T13:00:42.854Z,-12.79
2023-11-01T13:03:11.788Z,-12.82
2023-11-01T13:05:41.426Z,-12.86
2023-11-01T13:08:10.021Z,-12.81
2023-11-01T13:10:39.471Z,-12.81
2023-11-01T13:13:09.671Z,-12.79
2023-11-01T13:15:38.779Z,-12.83
2023-11-01T13:18:07.893Z,-12.83
2023-11-01T13:20:36.357Z,-12.79
2023-11-01T13:23:04.882Z,-12.82
2023-11-01T13:25:33.433Z,-12.86
2023-11-01T13:28:03.563Z,-12.91
2023-11-01T13:30:32.033Z,-12.97
2023-11-01T13:33:02.802Z,-13.00
2023-11-01T13:35:32.375Z,-13.00
2023-11-01T13:38:00.882Z,-13.01
2023-11-01T13:40:29.547Z,-13.03
2023-11-01T13:42:57.989Z,-13.07
2023-11-01T13:45:26.380Z,-13.11
2023-11-01T13:47:54.983Z,-13.16
2023-11-01T13:50:23.580Z,-13.21
2023-11-01T13:52:52.235Z,-13.26
2023-11-01T13:55:20.687Z,-13.34
2023-11-01T13:57:49.378Z,-13.41
2023-11-01T14:00:18.954Z,-13.48
2023-11-01T14:02:47.831Z,-13.49
2023-11-01T14:05:16.410Z,-13.50
2023-11-01T14:07:44.872Z,-13.49
2023-11-01T14:10:13.461Z,-13.49
2023-11-01T14:12:46.616Z,-13.50
2023-11-01T14:15:15.428Z,-13.56
2023-11-01T14:17:43.910Z,-13.60
2023-11-01T14:20:12.926Z,-13.62
2023-11-01T14:22:43.473Z,-13.64
2023-11-01T14:25:11.989Z,-13.65
2023-11-01T14:27:42.659Z,-13.64
2023-11-01T14:30:11.571Z,-13.65
2023-11-01T14:32:40.194Z,-13.64
2023-11-01T14:35:10.804Z,-13.59
2023-11-01T14:37:43.015Z,-13.45
2023-11-01T14:40:13.149Z,-13.39
2023-11-01T14:42:41.601Z,-13.33
2023-11-01T14:45:10.338Z,-13.34
2023-11-01T14:47:39.114Z,-13.29
2023-11-01T14:50:10.989Z,-13.27
2023-11-01T14:52:39.450Z,-13.26
2023-11-01T14:55:08.247Z,-13.28
2023-11-01T14:57:36.781Z,-13.27
2023-11-01T15:00:09.098Z,-13.20
2023-11-01T15:02:38.393Z,-13.23
2023-11-01T15:05:08.252Z,-13.22
2023-11-01T15:07:38.252Z,-13.24
2023-11-01T15:10:06.801Z,-13.28
2023-11-01T15:12:35.272Z,-13.30
2023-11-01T15:15:04.038Z,-13.32
2023-11-01T15:17:33.366Z,-13.32
2023-11-01T15:20:01.866Z,-13.33
2023-11-01T15:22:31.926Z,-13.36
2023-11-01T15:25:01.414Z,-13.33
2023-11-01T15:27:30.768Z,-13.36
2023-11-01T15:30:00.375Z,-13.37
2023-11-01T15:32:29.963Z,-13.36
2023-11-01T15:34:58.380Z,-13.42
2023-11-01T15:37:28.234Z,-13.46
2023-11-01T15:39:57.015Z,-13.49
2023-11-01T15:42:25.462Z,-13.48
2023-11-01T15:44:54.002Z,-13.51
2023-11-01T15:47:22.460Z,-13.54
2023-11-01T15:49:50.995Z,-13.58
2023-11-01T15:52:19.405Z,-13.57
2023-11-01T15:54:52.726Z,-13.62
2023-11-01T15:57:23.030Z,-13.63
2023-11-01T15:59:52.830Z,-13.65
2023-11-01T16:02:23.042Z,-13.66
2023-11-01T16:04:52.130Z,-13.71
2023-11-01T16:07:21.948Z,-13.75
2023-11-01T16:09:50.312Z,-13.77
2023-11-01T16:12:18.759Z,-13.80
2023-11-01T16:14:47.183Z,-13.79
2023-11-01T16:17:16.404Z,-13.77
2023-11-01T16:19:44.836Z,-13.86
2023-11-01T16:22:13.315Z,-13.99
2023-11-01T16:24:42.446Z,-14.11
2023-11-01T16:27:11.080Z,-14.17
2023-11-01T16:29:39.690Z,-14.24
2023-11-01T16:32:08.222Z,-14.26
2023-11-01T16:34:39.591Z,-14.21
2023-11-01T16:37:08.277Z,-14.20
2023-11-01T16:39:40.499Z,-14.24
2023-11-01T16:42:16.065Z,-14.28
2023-11-01T16:44:44.970Z,-14.27
2023-11-01T16:47:13.446Z,-14.23
2023-11-01T16:49:43.837Z,-14.20
2023-11-01T16:52:12.807Z,-14.21
2023-11-01T16:54:41.566Z,-14.19
2023-11-01T16:57:09.980Z,-14.16
2023-11-01T16:59:38.607Z,-14.11
2023-11-01T17:02:09.441Z,-14.10
2023-11-01T17:04:38.481Z,-14.07
2023-11-01T17:07:07.198Z,-14.12
2023-11-01T17:09:35.978Z,-14.11
2023-11-01T17:12:04.983Z,-14.09
2023-11-01T17:14:33.372Z,-14.08
2023-11-01T17:17:03.177Z,-14.08
2023-11-01T17:19:31.724Z,-14.05
2023-11-01T17:22:00.223Z,-14.01
2023-11-01T17:24:28.698Z,-13.98
2023-11-01T17:27:00.369Z,-13.98
2023-11-01T17:29:33.471Z,-13.97
2023-11-01T17:32:01.946Z,-13.97
2023-11-01T17:34:32.168Z,-13.99
2023-11-01T17:37:02.165Z,-13.97
2023-11-01T17:39:40.315Z,-13.97
2023-11-01T17:42:12.606Z,-13.95
2023-11-01T17:44:45.835Z,-13.96
2023-11-01T17:47:38.113Z,-13.98
2023-11-01T17:50:08.275Z,-13.99
2023-11-01T17:52:41.642Z,-14.11
2023-11-01T17:55:11.578Z,-14.20
2023-11-01T17:57:41.442Z,-14.24
2023-11-01T18:00:11.351Z,-14.24
2023-11-01T18:02:58.154Z,-14.28
2023-11-01T18:05:37.252Z,-14.30
2023-11-01T18:08:09.310Z,-14.30
2023-11-01T18:10:52.022Z,-14.29
2023-11-01T18:13:25.663Z,-14.32
2023-11-01T18:15:58.145Z,-14.34
2023-11-01T18:18:39.862Z,-14.37
2023-11-01T18:21:08.750Z,-14.37
2023-11-01T18:23:37.541Z,-14.35
2023-11-01T18:26:14.656Z,-14.37
2023-11-01T18:28:43.601Z,-14.45
2023-11-01T18:31:19.558Z,-14.58
2023-11-01T18:33:51.286Z,-14.71
2023-11-01T18:36:19.916Z,-14.74
2023-11-01T18:38:56.397Z,-14.76
2023-11-01T18:41:26.560Z,-14.76
2023-11-01T18:43:54.991Z,-14.74
2023-11-01T18:46:24.185Z,-14.72
2023-11-01T18:48:56.215Z,-14.72
2023-11-01T18:51:47.888Z,-14.70
2023-11-01T18:54:16.368Z,-14.69
2023-11-01T18:56:45.095Z,-14.69
2023-11-01T18:59:14.120Z,-14.71
2023-11-01T19:01:43.748Z,-14.72
2023-11-01T19:04:15.692Z,-14.74
2023-11-01T19:06:44.764Z,-14.80
2023-11-01T19:09:16.452Z,-14.83
2023-11-01T19:11:46.044Z,-14.83
2023-11-01T19:14:14.967Z,-14.82
2023-11-01T19:16:43.427Z,-14.79
2023-11-01T19:19:11.866Z,-14.75
2023-11-01T19:21:43.287Z,-14.74
2023-11-01T19:24:12.306Z,-14.74
2023-11-01T19:26:40.797Z,-14.73
2023-11-01T19:29:09.982Z,-14.75
2023-11-01T19:31:38.495Z,-14.73
2023-11-01T19:34:07.077Z,-14.72
2023-11-01T19:36:36.567Z,-14.71
2023-11-01T19:39:05.091Z,-14.73
2023-11-01T19:41:33.597Z,-14.77
2023-11-01T19:44:03.679Z,-14.80
2023-11-01T19:46:34.346Z,-14.80
2023-11-01T19:49:03.388Z,-14.81
2023-11-01T19:51:31.894Z,-14.81
2023-11-01T19:54:00.891Z,-14.80
2023-11-01T19:56:29.449Z,-14.76
2023-11-01T19:58:59.249Z,-14.73
2023-11-01T20:01:29.356Z,-14.72
2023-11-01T20:03:58.030Z,-14.71
2023-11-01T20:06:26.527Z,-14.72
2023-11-01T20:08:55.334Z,-14.70
2023-11-01T20:11:23.767Z,-14.69
2023-11-01T20:13:52.219Z,-14.70
2023-11-01T20:16:25.671Z,-14.72
2023-11-01T20:18:59.140Z,-14.73
2023-11-01T20:21:27.639Z,-14.74
2023-11-01T20:23:56.088Z,-14.78
2023-11-01T20:26:26.460Z,-14.80
2023-11-01T20:28:55.430Z,-14.82
2023-11-01T20:31:24.961Z,-14.78
2023-11-01T20:33:54.280Z,-14.80
2023-11-01T20:36:22.819Z,-14.81
2023-11-01T20:38:51.492Z,-14.81
2023-11-01T20:41:20.473Z,-14.81
2023-11-01T20:43:49.466Z,-14.82
2023-11-01T20:46:18.232Z,-14.84
2023-11-01T20:48:46.927Z,-14.86
2023-11-01T20:51:22.189Z,-14.87
2023-11-01T20:53:52.582Z,-14.90
2023-11-01T20:56:21.900Z,-14.94
2023-11-01T20:58:50.381Z,-14.96
2023-11-01T21:01:20.465Z,-14.99
2023-11-01T21:03:49.443Z,-15.02
2023-11-01T21:06:19.161Z,-15.02
2023-11-01T21:08:47.593Z,-15.02
2023-11-01T21:11:16.326Z,-15.05
2023-11-01T21:13:45.299Z,-15.07
2023-11-01T21:16:14.043Z,-15.07
2023-11-01T21:18:42.994Z,-15.11
2023-11-01T21:21:11.744Z,-15.16
2023-11-01T21:23:40.732Z,-15.21
2023-11-01T21:26:09.747Z,-15.24
2023-11-01T21:28:41.138Z,-15.29
2023-11-01T21:31:12.187Z,-15.31
2023-11-01T21:33:47.528Z,-15.35
2023-11-01T21:36:15.933Z,-15.34
2023-11-01T21:38:44.395Z,-15.34
2023-11-01T21:41:13.004Z,-15.35
2023-11-01T21:43:50.316Z,-15.34
2023-11-01T21:46:26.386Z,-15.32
2023-11-01T21:48:55.263Z,-15.30
2023-11-01T21:51:23.755Z,-15.25
2023-11-01T21:53:52.369Z,-15.22
2023-11-01T21:56:24.413Z,-15.18
2023-11-01T21:59:00.284Z,-15.18
2023-11-01T22:01:32.878Z,-15.11
2023-11-01T22:04:20.370Z,-15.11
2023-11-01T22:06:51.266Z,-15.09
2023-11-01T22:09:20.195Z,-15.04
2023-11-01T22:11:50.900Z,-15.02
2023-11-01T22:14:33.230Z,-15.03
2023-11-01T22:17:03.474Z,-15.01
2023-11-01T22:19:39.470Z,-15.01
2023-11-01T22:22:20.457Z,-14.99
2023-11-01T22:24:49.061Z,-14.98
2023-11-01T22:27:18.330Z,-14.99
2023-11-01T22:29:51.168Z,-15.02
2023-11-01T22:32:20.065Z,-15.03
2023-11-01T22:34:49.384Z,-15.03
2023-11-01T22:37:25.219Z,-15.06
2023-11-01T22:39:54.343Z,-15.06
2023-11-01T22:42:25.933Z,-15.12
2023-11-01T22:44:54.332Z,-15.19
2023-11-01T22:47:27.582Z,-15.22
2023-11-01T22:49:56.868Z,-15.20
2023-11-01T22:52:25.324Z,-15.18
2023-11-01T22:54:54.196Z,-15.19
2023-11-01T22:57:23.590Z,-15.20
2023-11-01T22:59:52.427Z,-15.19
2023-11-01T23:02:21.758Z,-15.16
2023-11-01T23:04:51.260Z,-15.15
2023-11-01T23:07:19.877Z,-15.12
2023-11-01T23:09:48.474Z,-15.11
2023-11-01T23:12:16.963Z,-15.14
2023-11-01T23:14:45.357Z,-15.14
2023-11-01T23:17:13.989Z,-15.10
2023-11-01T23:19:43.112Z,-15.03
2023-11-01T23:22:13.063Z,-14.95
2023-11-01T23:24:41.409Z,-14.89
2023-11-01T23:27:10.511Z,-14.84
2023-11-01T23:29:40.558Z,-14.83
2023-11-01T23:32:13.348Z,-14.77
2023-11-01T23:34:55.278Z,-14.78
2023-11-01T23:37:37.984Z,-14.72
2023-11-01T23:40:10.427Z,-14.68
2023-11-01T23:42:39.048Z,-14.60
2023-11-01T23:45:27.683Z,-14.60
2023-11-01T23:48:03.622Z,-14.54
2023-11-01T23:50:36.233Z,-14.56
2023-11-01T23:53:05.680Z,-14.57
2023-11-01T23:55:34.988Z,-14.63
2023-11-01T23:58:04.201Z,-14.66
